Time;durP1;ratioP1;P1;durP2;ratioP2;P2;SDS_P1;SDS_P2;PMS_P1;PMS_P2;Temp;Humidity;BMP_temperature;BMP_pressure;BME280_temperature;BME280_humidity;BME280_pressure;Samples;Min_cycle;Max_cycle;Signal;HPM_P1;HPM_P2
2023/06/27 00:00:25;;;;;;;9.35;3.35;;;;;;;16.53;69.18;101941.13;5001329;28;20053;-52
2023/06/27 00:02:53;;;;;;;7.95;3.03;;;;;;;16.56;69.25;101945.41;4999015;28;20054;-52
2023/06/27 00:05:18;;;;;;;7.88;3.20;;;;;;;16.54;69.56;101939.31;5000004;28;20117;-54
2023/06/27 00:07:44;;;;;;;6.22;3.70;;;;;;;16.54;69.61;101939.31;4999983;28;20097;-53
2023/06/27 00:10:10;;;;;;;9.63;3.72;;;;;;;16.52;69.22;101934.09;5005512;28;20456;-53
2023/06/27 00:12:36;;;;;;;7.72;3.30;;;;;;;16.48;69.11;101935.31;4997307;28;20025;-53
2023/06/27 00:15:06;;;;;;;8.38;3.60;;;;;;;16.45;69.76;101935.56;5014020;28;20030;-53
2023/06/27 00:17:33;;;;;;;11.30;3.28;;;;;;;16.42;69.54;101931.31;4999050;28;20022;-54
2023/06/27 00:20:00;;;;;;;8.65;3.40;;;;;;;16.44;70.30;101940.09;5004917;28;20410;-55
2023/06/27 00:22:26;;;;;;;7.70;2.90;;;;;;;16.42;70.51;101931.31;4998421;28;20031;-55
2023/06/27 00:24:53;;;;;;;8.15;3.40;;;;;;;16.39;70.54;101928.91;4999850;28;20037;-54
2023/06/27 00:27:19;;;;;;;8.05;3.55;;;;;;;16.33;70.90;101931.25;4997056;28;20061;-55
2023/06/27 00:29:44;;;;;;;11.10;3.67;;;;;;;16.31;70.42;101939.41;5006292;28;20065;-52
2023/06/27 00:32:09;;;;;;;12.63;3.25;;;;;;;16.31;70.41;101934.06;5003110;28;20044;-53
2023/06/27 00:34:35;;;;;;;10.68;3.90;;;;;;;16.30;71.04;101935.03;4978676;28;20488;-53
2023/06/27 00:37:00;;;;;;;10.50;4.30;;;;;;;16.27;71.60;101927.25;5000537;28;20022;-55
2023/06/27 00:39:25;;;;;;;9.60;3.60;;;;;;;16.32;70.90;101929.53;5000651;28;20081;-55
2023/06/27 00:41:54;;;;;;;9.45;3.90;;;;;;;16.30;71.10;101924.28;5004924;28;20032;-52
2023/06/27 00:44:20;;;;;;;13.05;3.75;;;;;;;16.24;71.24;101928.34;4999026;28;20026;-54
2023/06/27 00:46:50;;;;;;;7.82;3.42;;;;;;;16.20;71.36;101932.25;4999262;28;20033;-56
2023/06/27 00:49:17;;;;;;;10.73;3.42;;;;;;;16.17;71.73;101929.84;5001860;28;20060;-52
2023/06/27 00:51:46;;;;;;;7.05;3.33;;;;;;;16.21;71.74;101933.13;4998682;28;20034;-53
2023/06/27 00:54:12;;;;;;;9.20;3.70;;;;;;;16.21;70.86;101931.28;5005074;28;20041;-54
2023/06/27 00:56:38;;;;;;;10.88;3.75;;;;;;;16.19;71.77;101932.41;5000353;28;20100;-55
2023/06/27 00:59:05;;;;;;;18.10;3.95;;;;;;;16.20;71.39;101936.78;5003567;28;20026;-54
2023/06/27 01:01:31;;;;;;;9.82;4.05;;;;;;;16.19;71.57;101937.78;4999464;28;20036;-53
2023/06/27 01:03:57;;;;;;;10.65;3.70;;;;;;;16.17;71.87;101934.34;4999837;28;20030;-53
2023/06/27 01:06:54;;;;;;;10.98;3.38;;;;;;;16.18;71.09;101936.06;4999178;28;20058;-53
2023/06/27 01:10:00;;;;;;;8.73;3.50;;;;;;;16.19;70.29;101937.78;5001058;28;20030;-54
2023/06/27 01:12:44;;;;;;;11.07;4.15;;;;;;;16.10;71.83;101939.34;4957832;28;20122;-55
2023/06/27 01:15:09;;;;;;;6.32;3.03;;;;;;;16.08;72.30;101936.81;4994520;28;20113;-56
2023/06/27 01:17:36;;;;;;;10.63;3.63;;;;;;;16.03;72.29;101936.34;5002250;28;20419;-53
2023/06/27 01:20:02;;;;;;;11.02;3.58;;;;;;;15.99;73.26;101939.41;4998506;28;20495;-55
2023/06/27 01:22:35;;;;;;;11.98;3.50;;;;;;;15.98;72.72;101937.72;5001397;28;20053;-53
2023/06/27 01:25:02;;;;;;;9.00;3.50;;;;;;;16.01;72.97;101940.13;4997606;28;20361;-54
2023/06/27 01:27:28;;;;;;;11.00;3.70;;;;;;;15.98;72.97;101937.72;4999547;28;20034;-55
2023/06/27 01:29:54;;;;;;;10.88;3.70;;;;;;;15.96;72.88;101943.19;4996294;28;20019;-54
2023/06/27 01:32:26;;;;;;;6.45;3.22;;;;;;;15.96;73.09;101945.03;5002441;28;20559;-52
2023/06/27 01:35:24;;;;;;;10.18;3.50;;;;;;;16.01;71.81;101940.13;5001727;28;20045;-54
2023/06/27 01:37:54;;;;;;;8.27;3.72;;;;;;;15.94;73.51;101941.59;4998917;28;20463;-55
2023/06/27 01:40:20;;;;;;;9.73;3.30;;;;;;;15.92;73.69;101944.44;4997715;28;20042;-53
2023/06/27 01:42:53;;;;;;;8.38;3.58;;;;;;;15.85;73.76;101944.09;5000659;28;20026;-55
2023/06/27 01:45:19;;;;;;;10.73;3.60;;;;;;;15.89;73.79;101940.16;5001124;28;20026;-52
2023/06/27 01:47:46;;;;;;;9.20;3.05;;;;;;;15.83;73.01;101940.66;4997382;28;20069;-53
2023/06/27 01:50:12;;;;;;;11.27;4.35;;;;;;;15.80;74.37;101942.72;5000870;28;20484;-54
2023/06/27 01:52:38;;;;;;;7.32;3.45;;;;;;;15.81;74.18;101939.09;5002239;28;20475;-53
2023/06/27 01:55:04;;;;;;;8.38;3.40;;;;;;;15.81;74.74;101933.72;5001758;28;20023;-54
2023/06/27 01:57:29;;;;;;;7.45;3.78;;;;;;;15.83;74.47;101931.78;4997262;28;20044;-54
2023/06/27 01:59:55;;;;;;;11.40;3.50;;;;;;;15.83;73.81;101926.41;5001063;28;20026;-55
2023/06/27 02:02:20;;;;;;;8.93;3.50;;;;;;;15.80;75.02;101938.22;4997989;28;20023;-52
2023/06/27 02:04:46;;;;;;;10.45;3.40;;;;;;;15.82;75.08;101930.06;5000253;28;20037;-54
2023/06/27 02:07:11;;;;;;;8.82;3.53;;;;;;;15.79;73.92;101931.19;4996097;28;20026;-54
2023/06/27 02:09:37;;;;;;;10.07;3.75;;;;;;;15.76;75.29;101926.06;5000407;28;20030;-55
2023/06/27 02:12:04;;;;;;;7.15;3.22;;;;;;;15.76;75.47;101926.06;4996377;28;20031;-56
2023/06/27 02:14:30;;;;;;;10.93;3.67;;;;;;;15.75;74.59;101926.16;4995781;28;20573;-55
2023/06/27 02:16:55;;;;;;;10.82;3.38;;;;;;;15.75;75.30;101923.47;4996491;28;20022;-55
2023/06/27 02:19:21;;;;;;;13.82;3.67;;;;;;;15.79;75.51;101922.31;5000936;28;20022;-52
2023/06/27 02:21:48;;;;;;;8.52;3.22;;;;;;;15.76;75.82;101920.72;4996148;28;20018;-54
2023/06/27 02:24:13;;;;;;;8.20;3.05;;;;;;;15.78;75.61;101913.38;5000483;28;20037;-55
2023/06/27 02:26:39;;;;;;;9.40;3.53;;;;;;;15.79;75.87;101914.25;4997081;28;20026;-55
2023/06/27 02:29:04;;;;;;;7.03;3.30;;;;;;;15.71;76.32;101918.38;5000364;28;20033;-54
2023/06/27 02:31:29;;;;;;;11.85;3.72;;;;;;;15.74;75.76;101919.97;5000658;28;20494;-54
2023/06/27 02:33:54;;;;;;;12.43;3.63;;;;;;;15.70;76.48;101922.03;4998750;28;20096;-52
2023/06/27 02:36:22;;;;;;;8.13;3.30;;;;;;;15.72;76.16;101921.88;5012338;28;20022;-52
2023/06/27 02:38:47;;;;;;;7.07;3.50;;;;;;;15.69;76.53;101912.28;5000261;28;20600;-52
2023/06/27 02:41:12;;;;;;;11.27;3.55;;;;;;;15.71;76.19;101917.53;4996458;28;20038;-53
2023/06/27 02:43:39;;;;;;;6.90;3.50;;;;;;;15.67;76.14;101908.91;5001816;28;20378;-53
2023/06/27 02:46:04;;;;;;;12.88;4.22;;;;;;;15.66;76.92;101909.00;5000835;28;20105;-55
2023/06/27 02:48:30;;;;;;;8.13;3.65;;;;;;;15.69;76.68;101911.44;5001187;28;20118;-52
2023/06/27 02:50:56;;;;;;;10.65;3.80;;;;;;;15.66;76.73;101914.38;4998186;28;20379;-52
2023/06/27 02:53:22;;;;;;;11.15;3.80;;;;;;;15.64;76.13;101908.28;4996926;28;20034;-52
2023/06/27 02:55:48;;;;;;;10.18;3.30;;;;;;;15.62;76.96;101902.19;5000532;28;20033;-53
2023/06/27 02:58:14;;;;;;;12.93;3.53;;;;;;;15.62;76.79;101903.06;5002960;28;20480;-52
2023/06/27 03:00:39;;;;;;;9.55;3.63;;;;;;;15.60;77.52;101904.16;5002437;28;20027;-52
2023/06/27 03:03:04;;;;;;;10.95;3.72;;;;;;;15.60;77.39;101906.81;5001381;28;20505;-53
2023/06/27 03:05:30;;;;;;;11.45;3.80;;;;;;;15.60;77.35;101921.06;4995169;28;20418;-52
2023/06/27 03:07:55;;;;;;;10.18;3.72;;;;;;;15.58;77.87;101919.50;5001048;28;20033;-55
2023/06/27 03:10:20;;;;;;;12.52;3.92;;;;;;;15.55;77.73;101912.53;5001825;28;20018;-52
2023/06/27 03:12:46;;;;;;;12.30;3.65;;;;;;;15.49;78.11;101910.38;5001382;28;20053;-52
2023/06/27 03:15:11;;;;;;;12.05;3.55;;;;;;;15.49;77.50;101911.22;5003005;28;20400;-55
2023/06/27 03:17:36;;;;;;;10.70;3.78;;;;;;;15.47;78.25;101917.66;4997553;28;20250;-55
2023/06/27 03:20:03;;;;;;;13.10;4.30;;;;;;;15.45;78.14;101919.63;4983275;28;20507;-55
2023/06/27 03:22:28;;;;;;;14.55;3.75;;;;;;;15.43;78.46;101919.75;5002078;28;20022;-52
2023/06/27 03:24:54;;;;;;;11.40;3.80;;;;;;;15.45;78.73;101930.34;5006071;28;20025;-54
2023/06/27 03:27:23;;;;;;;11.13;3.63;;;;;;;15.43;78.50;101924.25;5000518;28;20045;-53
2023/06/27 03:29:49;;;;;;;11.23;3.65;;;;;;;15.42;78.83;101923.41;5002293;28;20042;-53
2023/06/27 03:32:15;;;;;;;13.13;4.03;;;;;;;15.40;79.05;101924.50;5000552;28;20022;-52
2023/06/27 03:34:41;;;;;;;10.73;3.45;;;;;;;15.43;78.54;101922.41;5005935;28;20046;-54
2023/06/27 03:37:07;;;;;;;8.13;3.40;;;;;;;15.35;80.03;101923.06;5002515;28;20022;-53
2023/06/27 03:39:32;;;;;;;9.23;2.90;;;;;;;15.36;79.17;101923.91;4997944;28;20100;-53
2023/06/27 03:41:58;;;;;;;9.65;3.72;;;;;;;15.39;79.51;101920.09;5002196;28;20111;-53
2023/06/27 03:44:23;;;;;;;11.70;4.05;;;;;;;15.35;79.95;101922.19;5002440;28;20062;-52
2023/06/27 03:46:48;;;;;;;11.38;3.63;;;;;;;15.32;80.17;101920.63;5003946;28;20028;-55
2023/06/27 03:49:14;;;;;;;11.73;3.80;;;;;;;15.33;79.98;101924.97;5000455;28;20022;-52
2023/06/27 03:51:40;;;;;;;7.95;3.47;;;;;;;15.33;80.57;101924.97;5003420;28;20065;-55
2023/06/27 03:54:06;;;;;;;10.45;4.00;;;;;;;15.30;80.49;101933.25;5004000;28;20119;-54
2023/06/27 03:56:31;;;;;;;10.23;3.78;;;;;;;15.34;79.95;101929.38;5003518;28;20030;-55
2023/06/27 03:58:57;;;;;;;11.07;3.78;;;;;;;15.28;80.37;101931.69;4999025;28;20534;-52
2023/06/27 04:01:22;;;;;;;11.82;3.92;;;;;;;15.27;80.96;101928.16;5001362;28;20027;-52
2023/06/27 04:03:47;;;;;;;9.20;3.65;;;;;;;15.25;80.61;101935.44;5003157;28;20089;-53
2023/06/27 04:06:13;;;;;;;10.45;3.75;;;;;;;15.27;80.89;101930.84;5003122;28;20473;-53
2023/06/27 04:08:38;;;;;;;9.82;3.70;;;;;;;15.28;80.77;101929.84;4999921;28;20046;-52
2023/06/27 04:11:03;;;;;;;13.95;4.05;;;;;;;15.26;81.09;101931.81;5000275;28;20021;-52
2023/06/27 04:13:29;;;;;;;8.48;3.38;;;;;;;15.27;81.17;101933.50;5003003;28;20399;-52
2023/06/27 04:15:55;;;;;;;11.02;3.92;;;;;;;15.26;81.14;101925.59;5002566;28;20040;-55
2023/06/27 04:18:20;;;;;;;8.30;3.53;;;;;;;15.21;82.11;101925.13;4999549;28;20019;-55
2023/06/27 04:20:45;;;;;;;10.45;4.05;;;;;;;15.24;81.45;101932.88;5003235;28;20061;-52
2023/06/27 04:23:11;;;;;;;9.95;3.47;;;;;;;15.24;81.38;101930.19;5000965;28;20054;-55
2023/06/27 04:25:37;;;;;;;11.27;4.05;;;;;;;15.26;81.06;101923.78;5001824;28;20026;-53
2023/06/27 04:28:02;;;;;;;11.88;4.07;;;;;;;15.25;81.47;101938.13;4998962;28;20404;-54
2023/06/27 04:30:28;;;;;;;11.57;4.28;;;;;;;15.22;81.51;101937.50;5002059;28;20052;-55
2023/06/27 04:32:53;;;;;;;12.38;3.90;;;;;;;15.18;82.15;101935.06;5001344;28;20041;-55
2023/06/27 04:35:18;;;;;;;18.98;4.28;;;;;;;15.20;81.99;101928.75;5005123;28;20026;-55
2023/06/27 04:37:47;;;;;;;10.60;4.18;;;;;;;15.14;81.67;101930.94;5001146;28;20096;-55
2023/06/27 04:40:12;;;;;;;12.80;4.00;;;;;;;15.15;82.59;101935.34;4999700;28;20081;-55
2023/06/27 04:42:38;;;;;;;12.48;4.13;;;;;;;15.14;82.74;101938.13;5006148;28;20026;-53
2023/06/27 04:45:05;;;;;;;11.02;4.18;;;;;;;15.16;82.21;101941.53;5002936;28;20537;-53
2023/06/27 04:47:32;;;;;;;10.25;4.20;;;;;;;15.12;82.77;101940.06;5005238;28;20399;-52
2023/06/27 04:49:58;;;;;;;11.50;4.20;;;;;;;15.17;82.56;101945.91;5002545;28;20356;-52
2023/06/27 04:52:23;;;;;;;11.00;4.05;;;;;;;15.15;82.58;101946.03;5003171;28;20032;-55
2023/06/27 04:54:49;;;;;;;10.82;4.22;;;;;;;15.15;82.60;101940.69;4997441;28;20387;-55
2023/06/27 04:57:15;;;;;;;6.68;3.70;;;;;;;15.21;82.66;101946.53;5002568;28;20038;-55
2023/06/27 04:59:42;;;;;;;12.18;4.10;;;;;;;15.23;83.70;101950.78;5000546;28;20034;-55
2023/06/27 05:02:07;;;;;;;12.70;4.03;;;;;;;15.24;83.70;101946.25;5002855;28;20435;-55
2023/06/27 05:04:33;;;;;;;11.38;4.60;;;;;;;15.31;84.04;101948.34;5001589;28;20030;-54
2023/06/27 05:06:58;;;;;;;12.00;4.78;;;;;;;15.40;83.45;101949.44;4998149;28;20018;-52
2023/06/27 05:09:24;;;;;;;18.80;4.72;;;;;;;15.50;83.85;101942.41;5003845;28;20475;-53
2023/06/27 05:11:49;;;;;;;11.60;4.28;;;;;;;15.60;83.54;101949.66;4997898;28;20030;-54
2023/06/27 05:14:14;;;;;;;14.10;4.13;;;;;;;15.70;83.26;101948.81;5004651;28;20049;-53
2023/06/27 05:16:40;;;;;;;10.48;4.70;;;;;;;15.82;83.41;101947.00;4998357;28;20116;-53
2023/06/27 05:19:05;;;;;;;12.75;4.28;;;;;;;16.00;82.53;101941.09;5002154;28;20498;-55
2023/06/27 05:21:31;;;;;;;15.45;4.47;;;;;;;16.04;82.61;101946.09;5000336;28;20027;-52
2023/06/27 05:23:56;;;;;;;11.63;4.18;;;;;;;16.18;82.77;101944.09;5001283;28;20112;-52
2023/06/27 05:26:21;;;;;;;11.38;4.45;;;;;;;16.28;82.60;101945.03;5000952;28;20507;-52
2023/06/27 05:28:47;;;;;;;13.00;4.60;;;;;;;16.30;82.84;101935.03;5004277;28;20053;-53
2023/06/27 05:31:12;;;;;;;12.00;4.95;;;;;;;16.49;82.73;101944.19;5002309;28;20024;-52
2023/06/27 05:33:38;;;;;;;11.57;4.60;;;;;;;16.61;81.96;101954.75;5004440;28;20407;-52
2023/06/27 05:36:03;;;;;;;13.75;4.47;;;;;;;16.79;81.34;101949.66;5000189;28;20112;-52
2023/06/27 05:38:28;;;;;;;10.32;4.43;;;;;;;16.93;80.92;101948.50;5001319;28;20102;-55
2023/06/27 05:40:54;;;;;;;10.93;4.53;;;;;;;17.08;81.01;101951.69;4998187;28;20022;-52
2023/06/27 05:43:19;;;;;;;12.98;4.57;;;;;;;17.31;80.12;101947.00;5000007;28;20081;-52
2023/06/27 05:45:44;;;;;;;13.80;4.30;;;;;;;17.55;79.07;101941.31;5004416;28;20117;-52
2023/06/27 05:48:10;;;;;;;14.05;4.78;;;;;;;17.74;79.05;101936.97;5002392;28;20099;-52
2023/06/27 05:50:35;;;;;;;13.60;4.55;;;;;;;17.97;78.21;101948.38;5002685;28;20029;-52
2023/06/27 05:53:00;;;;;;;14.90;4.75;;;;;;;18.20;77.67;101934.63;4999132;28;20037;-52
2023/06/27 05:55:26;;;;;;;14.98;4.55;;;;;;;18.43;77.03;101933.34;5002313;28;20433;-52
2023/06/27 05:57:51;;;;;;;13.77;4.28;;;;;;;18.66;75.47;101925.81;4989029;28;20456;-55
2023/06/27 06:00:17;;;;;;;14.23;4.68;;;;;;;18.89;75.11;101938.16;4999756;28;20033;-56
2023/06/27 06:02:43;;;;;;;12.05;5.13;;;;;;;19.11;73.54;101937.78;4998331;28;20022;-55
2023/06/27 06:05:10;;;;;;;18.25;5.13;;;;;;;19.29;72.97;101939.72;5002533;28;20026;-56
2023/06/27 06:07:39;;;;;;;14.75;4.95;;;;;;;19.54;71.88;101938.19;5000872;28;20034;-54
2023/06/27 06:10:05;;;;;;;11.77;4.50;;;;;;;19.77;71.03;101944.06;4996144;28;20022;-54
2023/06/27 06:12:31;;;;;;;9.80;4.45;;;;;;;19.89;70.63;101932.03;4993988;28;20084;-56
2023/06/27 06:14:56;;;;;;;17.08;4.72;;;;;;;20.15;69.73;101931.28;4992405;28;20031;-55
2023/06/27 06:17:21;;;;;;;17.08;4.93;;;;;;;20.34;68.82;101930.28;4984721;28;20117;-54
2023/06/27 06:19:46;;;;;;;13.43;4.43;;;;;;;20.55;68.07;101942.59;5003292;28;20025;-55
2023/06/27 06:22:12;;;;;;;18.35;4.22;;;;;;;20.67;68.26;101944.09;4996168;28;20050;-53
2023/06/27 06:24:37;;;;;;;15.80;4.40;;;;;;;20.83;66.97;101946.91;4999839;28;20037;-55
2023/06/27 06:27:03;;;;;;;17.02;4.75;;;;;;;21.11;66.08;101945.88;5000527;28;20042;-54
2023/06/27 06:29:28;;;;;;;17.73;4.57;;;;;;;21.28;65.46;101949.50;4995271;28;20112;-55
2023/06/27 06:31:53;;;;;;;16.25;4.40;;;;;;;21.46;64.97;101939.47;5000465;28;20045;-53
2023/06/27 06:34:18;;;;;;;15.07;4.43;;;;;;;21.58;64.15;101942.75;4994743;28;20049;-53
2023/06/27 06:36:44;;;;;;;18.08;5.28;;;;;;;21.81;64.79;101945.69;4998166;28;20038;-53
2023/06/27 06:39:09;;;;;;;17.25;5.05;;;;;;;22.09;64.28;101948.97;4995819;28;20041;-56
2023/06/27 06:41:34;;;;;;;14.18;4.55;;;;;;;22.17;62.52;101946.28;4997259;28;20038;-55
2023/06/27 06:44:00;;;;;;;14.40;4.07;;;;;;;22.35;61.96;101961.56;4997364;28;20030;-53
2023/06/27 06:46:25;;;;;;;12.43;4.27;;;;;;;22.45;61.10;101953.25;4997497;28;20400;-53
2023/06/27 06:48:51;;;;;;;8.60;4.47;;;;;;;22.56;61.57;101961.03;5001143;28;20304;-54
2023/06/27 06:51:17;;;;;;;15.65;4.07;;;;;;;22.89;60.29;101956.44;4995617;28;20045;-52
2023/06/27 06:53:42;;;;;;;14.35;4.60;;;;;;;23.04;59.24;101951.16;5002032;28;20034;-53
2023/06/27 06:56:07;;;;;;;15.23;4.78;;;;;;;23.24;59.50;101948.09;4995089;28;20515;-54
2023/06/27 06:58:33;;;;;;;10.65;4.93;;;;;;;23.41;58.87;101955.13;4999877;28;20068;-55
2023/06/27 07:00:58;;;;;;;12.90;4.00;;;;;;;23.67;57.62;101962.16;4995675;28;20380;-53
2023/06/27 07:03:24;;;;;;;13.95;4.63;;;;;;;23.69;56.90;101957.38;4997589;28;20031;-53
2023/06/27 07:05:49;;;;;;;12.85;4.15;;;;;;;23.95;56.21;101954.41;4999230;28;20371;-54
2023/06/27 07:08:14;;;;;;;12.95;4.20;;;;;;;24.07;55.71;101959.41;4995566;28;20110;-53
2023/06/27 07:10:40;;;;;;;13.85;4.45;;;;;;;24.28;54.08;101962.31;5000178;28;20022;-54
2023/06/27 07:13:05;;;;;;;13.38;4.57;;;;;;;24.44;54.76;101953.19;4997651;28;20033;-53
2023/06/27 07:15:32;;;;;;;15.32;4.38;;;;;;;24.70;54.12;101952.81;5005535;28;20038;-53
2023/06/27 07:17:57;;;;;;;10.98;3.83;;;;;;;24.90;51.50;101963.16;4996368;28;20022;-53
2023/06/27 07:20:23;;;;;;;14.95;4.30;;;;;;;25.12;52.08;101972.28;4994777;28;20030;-52
2023/06/27 07:22:49;;;;;;;10.20;4.03;;;;;;;25.19;50.04;101959.59;4999680;28;20029;-53
2023/06/27 07:25:15;;;;;;;13.50;4.25;;;;;;;25.20;49.61;101961.31;4996500;28;20026;-53
2023/06/27 07:27:42;;;;;;;12.70;4.18;;;;;;;25.21;50.02;101965.69;5001414;28;20026;-54
2023/06/27 07:30:08;;;;;;;13.85;4.45;;;;;;;25.23;49.73;101960.94;4996770;28;20034;-54
2023/06/27 07:32:33;;;;;;;9.90;3.90;;;;;;;25.54;47.73;101956.34;4999311;28;20085;-54
2023/06/27 07:34:58;;;;;;;9.17;3.20;;;;;;;25.74;47.03;101953.88;5000759;28;20420;-53
2023/06/27 07:37:24;;;;;;;12.05;3.35;;;;;;;25.64;47.48;101957.72;5002955;28;20304;-52
2023/06/27 07:39:49;;;;;;;8.95;3.00;;;;;;;25.67;46.55;101953.78;4996588;28;20041;-56
2023/06/27 07:42:16;;;;;;;12.03;3.20;;;;;;;25.60;46.48;101944.72;4991628;28;20487;-56
2023/06/27 07:44:41;;;;;;;11.60;2.63;;;;;;;25.47;45.63;101956.25;4998181;28;20340;-54
2023/06/27 07:47:07;;;;;;;8.45;2.90;;;;;;;25.75;45.44;101961.84;4999276;28;20026;-56
2023/06/27 07:49:32;;;;;;;10.15;2.80;;;;;;;25.55;45.39;101961.59;4996202;28;20029;-55
2023/06/27 07:51:57;;;;;;;7.32;2.70;;;;;;;25.76;46.94;101951.78;4999095;28;20481;-53
2023/06/27 07:54:26;;;;;;;8.27;2.47;;;;;;;25.52;45.34;101950.25;4999702;28;20093;-53
2023/06/27 07:56:52;;;;;;;8.45;2.78;;;;;;;25.51;45.17;101948.56;4994972;28;20789;-53
2023/06/27 07:59:17;;;;;;;6.15;2.10;;;;;;;25.23;44.41;101947.34;4996171;28;20535;-53
2023/06/27 08:01:43;;;;;;;7.93;2.53;;;;;;;25.12;43.37;101950.53;4998468;28;20109;-56
2023/06/27 08:04:08;;;;;;;6.28;1.90;;;;;;;25.16;43.73;101954.53;5002142;28;20022;-53
2023/06/27 08:06:34;;;;;;;5.57;2.15;;;;;;;25.32;43.75;101955.44;4998567;28;20027;-53
2023/06/27 08:08:59;;;;;;;9.68;2.33;;;;;;;25.29;43.47;101952.03;4995232;28;20376;-53
2023/06/27 08:11:24;;;;;;;6.50;2.10;;;;;;;25.32;45.07;101955.44;4998321;28;20022;-54
2023/06/27 08:13:50;;;;;;;4.93;1.60;;;;;;;25.53;42.68;101950.06;4999411;28;20034;-56
2023/06/27 08:16:15;;;;;;;4.68;1.60;;;;;;;25.46;43.14;101943.69;5002223;28;20030;-55
2023/06/27 08:18:41;;;;;;;3.70;1.60;;;;;;;25.72;41.27;101936.91;4998763;28;20030;-54
2023/06/27 08:21:06;;;;;;;3.42;1.83;;;;;;;25.68;40.17;101944.59;5003585;28;20021;-53
2023/06/27 08:23:31;;;;;;;10.02;2.25;;;;;;;25.77;41.36;101945.31;4998689;28;20403;-54
2023/06/27 08:25:57;;;;;;;7.25;2.10;;;;;;;25.88;41.39;101943.97;4999915;28;20034;-54
2023/06/27 08:28:22;;;;;;;6.65;1.83;;;;;;;25.92;41.82;101940.66;5000048;28;20026;-53
2023/06/27 08:30:47;;;;;;;8.13;2.30;;;;;;;26.11;41.93;101941.09;4999427;28;20479;-53
2023/06/27 08:33:12;;;;;;;6.45;1.90;;;;;;;26.02;40.77;101941.22;5001087;28;20426;-53
2023/06/27 08:35:38;;;;;;;7.25;2.10;;;;;;;25.92;41.37;101943.41;5000918;28;20050;-55
2023/06/27 08:38:04;;;;;;;7.70;1.90;;;;;;;25.83;42.12;101939.97;5004657;28;20057;-54
2023/06/27 08:40:32;;;;;;;5.38;1.80;;;;;;;25.80;41.97;101943.06;5000152;28;20019;-55
2023/06/27 08:42:58;;;;;;;6.60;2.38;;;;;;;25.66;43.06;101939.34;5002632;28;20058;-54
2023/06/27 08:45:23;;;;;;;9.27;2.20;;;;;;;25.73;43.43;101947.59;5001151;28;20057;-55
2023/06/27 08:47:49;;;;;;;9.32;1.80;;;;;;;25.65;43.40;101932.22;4998215;28;20057;-56
2023/06/27 08:50:17;;;;;;;5.97;1.77;;;;;;;25.58;40.70;101938.59;4999249;28;20080;-55
2023/06/27 08:52:44;;;;;;;7.28;1.92;;;;;;;25.46;41.36;101938.25;4997674;28;20026;-55
2023/06/27 08:55:32;;;;;;;5.82;1.70;;;;;;;25.49;43.39;101921.53;5004129;28;20052;-53
2023/06/27 08:58:01;;;;;;;9.23;2.05;;;;;;;25.26;42.52;101936.13;4996215;28;20031;-55
2023/06/27 09:00:29;;;;;;;10.02;2.13;;;;;;;25.00;43.63;101928.41;4969202;28;20084;-54
2023/06/27 09:02:55;;;;;;;11.75;2.47;;;;;;;25.04;43.83;101934.31;4993438;28;20109;-54
2023/06/27 09:05:21;;;;;;;6.30;2.00;;;;;;;24.77;43.48;101927.66;4996968;28;20026;-53
2023/06/27 09:07:48;;;;;;;8.27;1.77;;;;;;;24.72;43.98;101933.63;4997781;28;20383;-55
2023/06/27 09:10:14;;;;;;;7.72;2.05;;;;;;;24.50;43.32;101936.16;4999552;28;20034;-53
2023/06/27 09:12:41;;;;;;;11.27;2.03;;;;;;;24.44;43.80;101933.34;4999863;28;20036;-53
2023/06/27 09:15:07;;;;;;;7.88;1.70;;;;;;;24.29;42.07;101939.56;4998717;28;20384;-55
2023/06/27 09:17:32;;;;;;;5.80;1.73;;;;;;;24.24;42.38;101936.53;4997633;28;20057;-53
2023/06/27 09:19:57;;;;;;;6.43;1.50;;;;;;;24.09;43.47;101925.63;5000900;28;20028;-52
2023/06/27 09:22:23;;;;;;;4.95;1.60;;;;;;;24.08;43.21;101933.94;4999247;28;20065;-56
2023/06/27 09:24:49;;;;;;;3.90;1.40;;;;;;;24.04;44.21;101930.75;4998294;28;20030;-53
2023/06/27 09:27:31;;;;;;;8.98;1.60;;;;;;;24.14;43.06;101931.34;4991723;28;20113;-54
2023/06/27 09:30:03;;;;;;;9.43;1.60;;;;;;;24.05;41.99;101932.47;4996232;28;20472;-56
2023/06/27 09:32:29;;;;;;;7.70;1.75;;;;;;;24.02;42.92;101932.81;4998715;28;20027;-53
2023/06/27 09:34:55;;;;;;;18.25;2.20;;;;;;;24.33;42.88;101940.03;4996214;28;20057;-54
2023/06/27 09:37:27;;;;;;;9.20;1.98;;;;;;;24.49;42.52;101937.19;4998933;28;20034;-53
2023/06/27 09:39:53;;;;;;;9.70;1.85;;;;;;;24.55;41.69;101930.22;4996299;28;20379;-53
2023/06/27 09:42:18;;;;;;;6.50;1.50;;;;;;;24.54;39.89;101944.78;4998108;28;20026;-54
2023/06/27 09:44:44;;;;;;;4.85;1.58;;;;;;;24.67;40.63;101945.03;4998953;28;20034;-53
2023/06/27 09:47:10;;;;;;;4.28;1.05;;;;;;;24.87;41.70;101949.94;4997700;28;20499;-52
2023/06/27 09:49:41;;;;;;;4.30;1.50;;;;;;;25.00;41.89;101946.59;4999153;28;20037;-56
2023/06/27 09:52:08;;;;;;;3.90;1.27;;;;;;;25.23;38.71;101955.50;4995571;28;20022;-55
2023/06/27 09:54:41;;;;;;;3.45;1.05;;;;;;;25.47;39.52;101957.09;4999847;28;20033;-53
2023/06/27 09:57:16;;;;;;;4.70;1.27;;;;;;;25.50;38.06;101945.00;4998967;28;20018;-53
2023/06/27 09:59:42;;;;;;;4.32;1.23;;;;;;;25.62;36.64;101939.91;4991170;28;20034;-54
2023/06/27 10:02:14;;;;;;;5.18;1.40;;;;;;;25.81;39.67;101946.63;4987439;28;20073;-53
2023/06/27 10:04:39;;;;;;;4.18;1.20;;;;;;;25.87;37.16;101942.28;4998147;28;20026;-54
2023/06/27 10:07:07;;;;;;;5.10;1.15;;;;;;;25.96;35.70;101933.00;4999843;28;20495;-53
2023/06/27 10:09:34;;;;;;;3.70;1.20;;;;;;;26.21;37.75;101939.75;4992940;28;20117;-53
2023/06/27 10:12:01;;;;;;;1.70;1.00;;;;;;;26.45;35.53;101934.09;5003362;28;20101;-54
2023/06/27 10:14:27;;;;;;;3.80;1.20;;;;;;;26.90;36.39;101932.78;4992279;28;20088;-54
2023/06/27 10:16:54;;;;;;;2.72;0.80;;;;;;;27.23;35.14;101932.13;4996312;28;20442;-53
2023/06/27 10:19:19;;;;;;;6.80;1.00;;;;;;;27.65;34.11;101929.41;4999033;28;20109;-53
2023/06/27 10:21:45;;;;;;;2.45;1.17;;;;;;;27.86;33.90;101944.78;4996133;28;20153;-55
2023/06/27 10:24:12;;;;;;;5.45;1.20;;;;;;;27.80;35.04;101940.16;4998051;28;20543;-53
2023/06/27 10:26:38;;;;;;;3.53;1.15;;;;;;;27.58;33.66;101937.56;4999201;28;20127;-53
2023/06/27 10:29:16;;;;;;;4.22;1.15;;;;;;;27.64;35.74;101944.06;4996167;28;20058;-50
2023/06/27 10:31:45;;;;;;;8.95;1.60;;;;;;;27.69;33.63;101942.44;4995376;28;20047;-54
2023/06/27 10:34:18;;;;;;;4.13;1.42;;;;;;;27.81;34.58;101941.81;4999981;28;20075;-53
2023/06/27 10:36:59;;;;;;;3.53;1.20;;;;;;;28.00;34.52;101954.72;4996312;28;20062;-53
2023/06/27 10:39:30;;;;;;;3.53;1.10;;;;;;;27.82;34.95;101948.97;4997613;28;20038;-53
2023/06/27 10:42:18;;;;;;;2.20;1.38;;;;;;;27.70;33.06;101940.53;4996345;28;20041;-53
2023/06/27 10:45:09;;;;;;;3.80;0.93;;;;;;;27.90;34.00;101937.88;4997158;28;20114;-56
2023/06/27 10:47:41;;;;;;;4.70;1.48;;;;;;;27.79;32.20;101933.84;5001900;28;20030;-53
2023/06/27 10:50:12;;;;;;;3.17;1.08;;;;;;;27.71;35.41;101927.72;4995156;28;20029;-56
2023/06/27 10:52:38;;;;;;;3.30;1.05;;;;;;;27.91;32.66;101930.50;4997885;28;20026;-54
2023/06/27 10:55:15;;;;;;;3.17;1.00;;;;;;;27.80;34.28;101929.22;4996587;28;20026;-55
2023/06/27 10:57:47;;;;;;;2.40;0.93;;;;;;;27.52;32.58;101919.28;4998433;28;20054;-53
2023/06/27 11:00:14;;;;;;;6.70;1.30;;;;;;;27.49;32.91;101920.50;4997275;28;20027;-53
2023/06/27 11:02:44;;;;;;;3.85;1.13;;;;;;;27.34;34.46;101930.72;4995315;28;20105;-54
2023/06/27 11:05:16;;;;;;;8.85;1.30;;;;;;;27.39;31.67;101921.94;4994511;28;20108;-56
2023/06/27 11:07:52;;;;;;;7.85;1.25;;;;;;;27.44;33.92;101931.19;5000708;28;20037;-55
2023/06/27 11:10:25;;;;;;;4.60;1.13;;;;;;;27.42;33.75;101936.03;4990803;28;20403;-52
2023/06/27 11:13:11;;;;;;;3.35;0.90;;;;;;;27.47;31.54;101941.72;4991982;28;20479;-53
2023/06/27 11:15:37;;;;;;;4.93;1.13;;;;;;;27.57;29.71;101940.50;4995827;28;20023;-52
2023/06/27 11:18:04;;;;;;;5.30;1.35;;;;;;;27.66;30.76;101937.38;4997462;28;20034;-54
2023/06/27 11:20:30;;;;;;;4.28;1.15;;;;;;;27.85;31.39;101933.03;4997235;28;20061;-53